createdAt,value
2018-09-02T00:00:42.743Z,15.27
2018-09-02T00:01:42.745Z,15.28
2018-09-02T00:02:42.787Z,15.23
2018-09-02T00:03:42.773Z,15.29
2018-09-02T00:04:42.808Z,15.17
2018-09-02T00:05:42.808Z,15.21
2018-09-02T00:06:42.818Z,15.27
2018-09-02T00:07:42.863Z,15.19
2018-09-02T00:08:42.858Z,15.17
2018-09-02T00:09:42.862Z,15.23
2018-09-02T00:10:42.877Z,15.14
2018-09-02T00:11:42.892Z,15.16
2018-09-02T00:12:42.915Z,15.13
2018-09-02T00:13:42.922Z,15.14
2018-09-02T00:14:42.937Z,15.13
2018-09-02T00:15:42.952Z,15.11
2018-09-02T00:16:42.968Z,15.11
2018-09-02T00:17:42.984Z,15.14
2018-09-02T00:18:42.999Z,15.11
2018-09-02T00:19:43.016Z,15.11
2018-09-02T00:20:43.027Z,15.13
2018-09-02T00:21:43.043Z,15.09
2018-09-02T00:22:43.058Z,15.06
2018-09-02T00:23:43.072Z,15.13
2018-09-02T00:24:43.107Z,15.14
2018-09-02T00:25:43.113Z,15.14
2018-09-02T00:26:43.207Z,15.14
2018-09-02T00:27:43.144Z,15.02
2018-09-02T00:28:43.149Z,15.02
2018-09-02T00:29:43.242Z,15.03
2018-09-02T00:30:43.190Z,15.02
2018-09-02T00:31:43.205Z,15.03
2018-09-02T00:32:43.208Z,15.02
2018-09-02T00:33:43.267Z,15.10
2018-09-02T00:34:43.245Z,15.01
2018-09-02T00:35:43.253Z,15.03
2018-09-02T00:36:43.268Z,14.99
2018-09-02T00:37:43.285Z,15.02
2018-09-02T00:38:43.302Z,14.99
2018-09-02T00:39:43.419Z,14.98
2018-09-02T00:40:43.368Z,14.99
2018-09-02T00:41:43.479Z,14.98
2018-09-02T00:42:43.610Z,14.94
2018-09-02T00:43:43.376Z,14.96
2018-09-02T00:44:43.388Z,14.96
2018-09-02T00:45:43.404Z,14.95
2018-09-02T00:46:43.418Z,14.96
2018-09-02T00:47:43.436Z,14.95
2018-09-02T00:48:43.448Z,14.88
2018-09-02T00:49:43.462Z,14.89
2018-09-02T00:50:43.486Z,14.86
2018-09-02T00:51:43.494Z,14.89
2018-09-02T00:52:43.508Z,14.94
2018-09-02T00:53:43.523Z,14.95
2018-09-02T00:54:43.538Z,14.91
2018-09-02T00:55:43.552Z,14.88
2018-09-02T00:56:43.573Z,14.88
2018-09-02T00:57:43.583Z,14.84
2018-09-02T00:58:43.604Z,14.83
2018-09-02T00:59:43.613Z,14.81
2018-09-02T01:00:43.626Z,14.84
2018-09-02T01:01:43.647Z,14.81
2018-09-02T01:02:43.708Z,14.70
2018-09-02T01:03:43.678Z,14.70
2018-09-02T01:04:43.706Z,14.72
2018-09-02T01:05:43.722Z,14.77
2018-09-02T01:06:43.731Z,14.80
2018-09-02T01:07:43.733Z,14.70
2018-09-02T01:08:43.747Z,14.75
2018-09-02T01:09:43.773Z,14.78
2018-09-02T01:10:43.777Z,14.65
2018-09-02T01:11:43.800Z,14.72
2018-09-02T01:12:43.816Z,14.64
2018-09-02T01:13:43.822Z,14.73
2018-09-02T01:14:43.863Z,14.70
2018-09-02T01:15:43.851Z,14.68
2018-09-02T01:16:43.866Z,14.58
2018-09-02T01:17:43.886Z,14.58
2018-09-02T01:18:43.896Z,14.70
2018-09-02T01:19:46.598Z,14.64
2018-09-02T01:20:43.925Z,14.70
2018-09-02T01:21:43.939Z,14.60
2018-09-02T01:22:43.955Z,14.58
2018-09-02T01:23:43.972Z,14.58
2018-09-02T01:25:44.001Z,14.68
2018-09-02T01:26:44.017Z,14.54
2018-09-02T01:27:44.032Z,14.57
2018-09-02T01:28:44.047Z,14.58
2018-09-02T01:29:44.060Z,14.69
2018-09-02T01:30:44.075Z,14.62
2018-09-02T01:31:44.090Z,14.55
2018-09-02T01:32:44.105Z,14.62
2018-09-02T01:33:44.119Z,14.50
2018-09-02T01:34:44.216Z,14.57
2018-09-02T01:35:44.250Z,14.55
2018-09-02T01:36:44.163Z,14.51
2018-09-02T01:37:44.188Z,14.54
2018-09-02T01:38:44.314Z,14.58
2018-09-02T01:39:44.213Z,14.52
2018-09-02T01:40:44.220Z,14.60
2018-09-02T01:41:44.235Z,14.58
2018-09-02T01:42:44.258Z,14.58
2018-09-02T01:43:44.270Z,14.51
2018-09-02T01:44:44.280Z,14.61
2018-09-02T01:45:44.303Z,14.47
2018-09-02T01:46:44.308Z,14.51
2018-09-02T01:47:44.319Z,14.50
2018-09-02T01:48:44.334Z,14.51
2018-09-02T01:49:44.348Z,14.51
2018-09-02T01:50:44.363Z,14.50
2018-09-02T01:51:44.381Z,14.50
2018-09-02T01:52:44.391Z,14.52
2018-09-02T01:53:44.403Z,14.52
2018-09-02T01:54:44.420Z,14.55
2018-09-02T01:55:44.433Z,14.46
2018-09-02T01:56:44.449Z,14.54
2018-09-02T01:57:44.463Z,14.45
2018-09-02T01:58:44.477Z,14.47
2018-09-02T01:59:44.490Z,14.33
2018-09-02T02:00:44.512Z,14.36
2018-09-02T02:01:44.518Z,14.39
2018-09-02T02:02:44.539Z,14.37
2018-09-02T02:03:44.547Z,14.33
2018-09-02T02:04:44.648Z,14.36
2018-09-02T02:05:44.605Z,14.35
2018-09-02T02:06:44.592Z,14.32
2018-09-02T02:07:44.605Z,14.35
2018-09-02T02:08:44.620Z,14.35
2018-09-02T02:09:44.641Z,14.40
2018-09-02T02:10:44.672Z,14.37
2018-09-02T02:11:44.661Z,14.39
2018-09-02T02:12:44.675Z,14.39
2018-09-02T02:13:44.690Z,14.32
2018-09-02T02:14:44.802Z,14.37
2018-09-02T02:15:44.719Z,14.18
2018-09-02T02:16:44.751Z,14.29
2018-09-02T02:17:44.749Z,14.25
2018-09-02T02:18:44.782Z,14.32
2018-09-02T02:19:44.785Z,14.33
2018-09-02T02:20:44.792Z,14.17
2018-09-02T02:21:44.802Z,14.24
2018-09-02T02:22:44.816Z,14.28
2018-09-02T02:23:44.830Z,14.21
2018-09-02T02:24:44.844Z,14.25
2018-09-02T02:25:44.860Z,14.27
2018-09-02T02:26:44.871Z,14.25
2018-09-02T02:27:44.885Z,14.24
2018-09-02T02:28:44.900Z,14.28
2018-09-02T02:29:44.912Z,14.27
2018-09-02T02:30:44.930Z,14.15
2018-09-02T02:31:44.942Z,14.12
2018-09-02T02:32:44.957Z,14.12
2018-09-02T02:33:44.970Z,14.14
2018-09-02T02:34:44.987Z,14.17
2018-09-02T02:35:45.000Z,14.15
2018-09-02T02:36:45.012Z,14.14
2018-09-02T02:37:45.029Z,14.09
2018-09-02T02:38:45.088Z,14.06
2018-09-02T02:39:45.084Z,14.07
2018-09-02T02:40:45.069Z,14.06
2018-09-02T02:41:45.111Z,14.06
2018-09-02T02:42:45.156Z,14.03
2018-09-02T02:43:45.130Z,14.00
2018-09-02T02:44:45.151Z,14.06
2018-09-02T02:45:45.160Z,14.07
2018-09-02T02:46:45.153Z,14.06
2018-09-02T02:47:45.167Z,14.07
2018-09-02T02:48:45.180Z,14.02
2018-09-02T02:49:45.291Z,14.04
2018-09-02T02:50:45.220Z,14.00
2018-09-02T02:51:45.290Z,14.00
2018-09-02T02:52:45.279Z,14.07
2018-09-02T02:53:45.252Z,14.02
2018-09-02T02:54:45.263Z,14.02
2018-09-02T02:55:45.329Z,13.92
2018-09-02T02:56:45.292Z,14.03
2018-09-02T02:57:45.307Z,14.03
2018-09-02T02:58:45.318Z,13.95
2018-09-02T02:59:45.333Z,14.03
2018-09-02T03:00:45.348Z,13.99
2018-09-02T03:01:45.359Z,13.96
2018-09-02T03:02:45.375Z,13.92
2018-09-02T03:03:45.387Z,14.03
2018-09-02T03:04:45.405Z,13.84
2018-09-02T03:05:45.418Z,13.95
2018-09-02T03:06:45.431Z,13.88
2018-09-02T03:07:45.442Z,13.99
2018-09-02T03:08:45.463Z,13.89
2018-09-02T03:09:45.475Z,13.97
2018-09-02T03:10:45.536Z,13.95
2018-09-02T03:11:45.540Z,13.95
2018-09-02T03:12:45.588Z,13.99
2018-09-02T03:13:45.543Z,13.99
2018-09-02T03:14:45.629Z,13.97
2018-09-02T03:15:45.553Z,14.00
2018-09-02T03:16:45.571Z,13.99
2018-09-02T03:17:45.598Z,13.96
2018-09-02T03:18:45.602Z,13.92
2018-09-02T03:19:45.611Z,14.00
2018-09-02T03:20:45.629Z,14.04
2018-09-02T03:21:45.642Z,13.95
2018-09-02T03:22:45.665Z,14.00
2018-09-02T03:23:45.675Z,14.06
2018-09-02T03:24:45.685Z,13.99
2018-09-02T03:25:45.708Z,14.00
2018-09-02T03:26:45.710Z,13.95
2018-09-02T03:27:45.724Z,14.02
2018-09-02T03:28:45.739Z,14.02
2018-09-02T03:29:45.752Z,14.00
2018-09-02T03:30:45.778Z,13.97
2018-09-02T03:31:45.781Z,14.00
2018-09-02T03:32:45.797Z,14.02
2018-09-02T03:33:45.806Z,13.97
2018-09-02T03:34:45.820Z,13.99
2018-09-02T03:35:45.833Z,14.09
2018-09-02T03:36:45.849Z,13.99
2018-09-02T03:37:45.868Z,14.03
2018-09-02T03:38:45.887Z,14.00
2018-09-02T03:39:45.893Z,14.04
2018-09-02T03:40:45.948Z,14.06
2018-09-02T03:41:45.918Z,14.07
2018-09-02T03:42:45.934Z,14.02
2018-09-02T03:43:45.944Z,14.06
2018-09-02T03:44:45.964Z,14.06
2018-09-02T03:45:45.984Z,14.06
2018-09-02T03:46:46.059Z,14.12
2018-09-02T03:47:46.056Z,14.12
2018-09-02T03:48:46.563Z,14.09
2018-09-02T03:49:46.035Z,14.15
2018-09-02T03:50:46.042Z,14.24
2018-09-02T03:51:46.056Z,14.09
2018-09-02T03:52:46.073Z,14.15
2018-09-02T03:53:46.089Z,14.07
2018-09-02T03:54:46.133Z,14.14
2018-09-02T03:55:46.120Z,14.17
2018-09-02T03:56:46.129Z,14.12
2018-09-02T03:57:46.143Z,14.10
2018-09-02T03:58:46.173Z,14.14
2018-09-02T03:59:46.377Z,14.27
2018-09-02T04:00:46.183Z,14.21
2018-09-02T04:01:46.197Z,14.25
2018-09-02T04:02:46.217Z,14.21
2018-09-02T04:03:46.225Z,14.25
2018-09-02T04:04:46.238Z,14.33
2018-09-02T04:05:46.251Z,14.35
2018-09-02T04:06:46.265Z,14.33
2018-09-02T04:07:46.279Z,14.40
2018-09-02T04:08:46.293Z,14.37
2018-09-02T04:09:46.311Z,14.39
2018-09-02T04:10:46.323Z,14.33
2018-09-02T04:11:46.340Z,14.37
2018-09-02T04:12:46.354Z,14.35
2018-09-02T04:13:46.363Z,14.37
2018-09-02T04:14:46.377Z,14.40
2018-09-02T04:15:46.402Z,14.40
2018-09-02T04:16:46.405Z,14.36
2018-09-02T04:17:46.418Z,14.33
2018-09-02T04:18:46.558Z,14.36
2018-09-02T04:19:46.484Z,14.35
2018-09-02T04:20:46.525Z,14.36
2018-09-02T04:21:46.519Z,14.35
2018-09-02T04:22:46.490Z,14.35
2018-09-02T04:23:46.501Z,14.35
2018-09-02T04:24:46.518Z,14.22
2018-09-02T04:25:46.530Z,14.29
2018-09-02T04:26:46.570Z,14.24
2018-09-02T04:27:46.563Z,14.25
2018-09-02T04:28:46.685Z,14.24
2018-09-02T04:29:46.636Z,14.22
2018-09-02T04:30:46.605Z,14.25
2018-09-02T04:31:46.614Z,14.22
2018-09-02T04:32:46.642Z,14.27
2018-09-02T04:33:46.680Z,14.15
2018-09-02T04:34:46.656Z,14.14
2018-09-02T04:35:46.701Z,14.20
2018-09-02T04:36:46.689Z,14.09
2018-09-02T04:37:46.700Z,14.03
2018-09-02T04:38:46.711Z,14.06
2018-09-02T04:39:46.725Z,14.06
2018-09-02T04:40:46.738Z,14.03
2018-09-02T04:41:46.754Z,13.96
2018-09-02T04:42:46.767Z,14.02
2018-09-02T04:43:46.784Z,13.92
2018-09-02T04:44:46.801Z,13.96
2018-09-02T04:45:46.813Z,13.97
2018-09-02T04:46:46.826Z,13.97
2018-09-02T04:47:46.838Z,13.95
2018-09-02T04:48:46.853Z,13.85
2018-09-02T04:49:46.866Z,13.95
2018-09-02T04:50:46.893Z,13.85
2018-09-02T04:51:46.919Z,13.89
2018-09-02T04:52:46.935Z,13.85
2018-09-02T04:53:46.975Z,13.88
2018-09-02T04:54:46.935Z,13.92
2018-09-02T04:55:46.950Z,13.89
2018-09-02T04:56:46.963Z,13.89
2018-09-02T04:57:46.977Z,13.88
2018-09-02T04:58:46.991Z,13.89
2018-09-02T04:59:47.012Z,13.85
2018-09-02T05:00:47.020Z,13.84
2018-09-02T05:01:47.033Z,13.79
2018-09-02T05:02:47.089Z,13.84
2018-09-02T05:03:47.063Z,13.79
2018-09-02T05:04:47.244Z,13.81
2018-09-02T05:05:47.088Z,13.89
2018-09-02T05:06:47.113Z,13.88
2018-09-02T05:07:47.121Z,13.82
2018-09-02T05:08:47.129Z,13.88
2018-09-02T05:09:47.146Z,13.87
2018-09-02T05:10:47.157Z,13.88
2018-09-02T05:11:47.170Z,13.88
2018-09-02T05:12:47.187Z,13.87
2018-09-02T05:13:47.199Z,13.95
2018-09-02T05:14:47.213Z,13.87
2018-09-02T05:15:47.227Z,13.84
2018-09-02T05:16:47.240Z,13.87
2018-09-02T05:17:47.259Z,13.88
2018-09-02T05:18:47.267Z,13.91
2018-09-02T05:19:47.284Z,13.84
2018-09-02T05:20:47.299Z,13.88
2018-09-02T05:21:47.316Z,13.85
2018-09-02T05:22:47.329Z,13.84
2018-09-02T05:23:47.450Z,13.84
2018-09-02T05:24:47.352Z,13.84
2018-09-02T05:25:47.529Z,13.84
2018-09-02T05:26:47.403Z,13.87
2018-09-02T05:27:47.416Z,13.84
2018-09-02T05:28:47.410Z,13.88
2018-09-02T05:29:47.467Z,13.91
2018-09-02T05:30:47.440Z,13.88
2018-09-02T05:31:47.453Z,13.88
2018-09-02T05:32:47.474Z,13.87
2018-09-02T05:33:47.477Z,13.91
2018-09-02T05:34:47.488Z,13.85
2018-09-02T05:35:47.522Z,13.96
2018-09-02T05:36:47.600Z,13.96
2018-09-02T05:37:47.586Z,13.91
2018-09-02T05:38:47.547Z,13.95
2018-09-02T05:39:47.559Z,13.92
2018-09-02T05:40:47.574Z,13.97
2018-09-02T05:41:47.591Z,14.00
2018-09-02T05:42:47.599Z,13.97
2018-09-02T05:43:47.649Z,13.95
2018-09-02T05:44:47.630Z,13.95
2018-09-02T05:45:47.649Z,14.00
2018-09-02T05:46:47.649Z,14.04
2018-09-02T05:47:47.662Z,14.07
2018-09-02T05:48:47.678Z,14.03
2018-09-02T05:49:47.690Z,14.07
2018-09-02T05:50:47.707Z,14.07
2018-09-02T05:51:47.718Z,14.06
2018-09-02T05:52:47.733Z,14.15
2018-09-02T05:53:47.748Z,14.18
2018-09-02T05:54:47.763Z,14.15
2018-09-02T05:55:47.772Z,14.18
2018-09-02T05:56:47.794Z,14.22
2018-09-02T05:57:47.801Z,14.25
2018-09-02T05:58:47.818Z,14.37
2018-09-02T05:59:47.838Z,14.33
2018-09-02T06:00:47.922Z,14.39
2018-09-02T06:01:47.877Z,14.40
2018-09-02T06:02:47.913Z,14.35
2018-09-02T06:03:47.889Z,14.43
2018-09-02T06:04:47.900Z,14.45
2018-09-02T06:05:47.917Z,14.58
2018-09-02T06:06:47.929Z,14.51
2018-09-02T06:07:47.947Z,14.54
2018-09-02T06:08:47.976Z,14.57
2018-09-02T06:09:47.971Z,14.62
2018-09-02T06:10:47.981Z,14.65
2018-09-02T06:11:48.002Z,14.65
2018-09-02T06:12:48.010Z,14.69
2018-09-02T06:13:48.026Z,14.72
2018-09-02T06:14:48.037Z,14.70
2018-09-02T06:15:48.053Z,14.65
2018-09-02T06:16:48.072Z,14.73
2018-09-02T06:17:48.085Z,14.77
2018-09-02T06:18:48.094Z,14.75
2018-09-02T06:19:48.114Z,14.88
2018-09-02T06:20:48.124Z,14.83
2018-09-02T06:21:48.138Z,14.91
2018-09-02T06:22:48.150Z,14.88
2018-09-02T06:23:48.168Z,14.88
2018-09-02T06:24:48.181Z,14.98
2018-09-02T06:25:48.192Z,15.03
2018-09-02T06:26:48.206Z,15.06
2018-09-02T06:27:48.221Z,15.02
2018-09-02T06:28:48.291Z,15.03
2018-09-02T06:29:48.258Z,15.02
2018-09-02T06:30:48.261Z,15.06
2018-09-02T06:31:48.277Z,15.06
2018-09-02T06:32:48.357Z,15.19
2018-09-02T06:33:48.321Z,15.17
2018-09-02T06:34:48.330Z,15.23
2018-09-02T06:35:48.342Z,15.21
2018-09-02T06:36:48.352Z,15.34
2018-09-02T06:37:48.366Z,15.38
2018-09-02T06:38:48.375Z,15.39
2018-09-02T06:39:48.389Z,15.35
2018-09-02T06:40:48.414Z,15.47
2018-09-02T06:41:48.421Z,15.49
2018-09-02T06:42:48.445Z,15.46
2018-09-02T06:43:48.467Z,15.43
2018-09-02T06:44:48.461Z,15.49
2018-09-02T06:45:48.621Z,15.49
2018-09-02T06:46:48.489Z,15.56
2018-09-02T06:47:48.507Z,15.64
2018-09-02T06:48:48.527Z,15.65
2018-09-02T06:49:48.531Z,15.75
2018-09-02T06:50:48.551Z,15.67
2018-09-02T06:51:48.563Z,15.76
2018-09-02T06:52:48.640Z,15.76
2018-09-02T06:53:48.640Z,15.78
2018-09-02T06:54:48.602Z,15.78
2018-09-02T06:55:48.640Z,15.80
2018-09-02T06:56:48.721Z,15.84
2018-09-02T06:57:48.646Z,15.93
2018-09-02T06:58:48.665Z,15.93
2018-09-02T06:59:48.674Z,16.04
2018-09-02T07:00:48.689Z,16.08
2018-09-02T07:01:48.703Z,16.08
2018-09-02T07:02:48.721Z,16.04
2018-09-02T07:03:48.732Z,16.21
2018-09-02T07:04:48.746Z,16.23
2018-09-02T07:05:49.362Z,16.24
2018-09-02T07:06:48.844Z,16.28
2018-09-02T07:07:48.788Z,16.35
2018-09-02T07:08:48.860Z,16.31
2018-09-02T07:09:48.821Z,16.42
2018-09-02T07:10:48.830Z,16.46
2018-09-02T07:11:48.847Z,16.49
2018-09-02T07:12:48.860Z,16.53
2018-09-02T07:13:48.879Z,16.61
2018-09-02T07:14:48.893Z,16.57
2018-09-02T07:15:48.908Z,16.66
2018-09-02T07:16:48.940Z,16.66
2018-09-02T07:17:48.944Z,16.71
2018-09-02T07:18:48.945Z,16.71
2018-09-02T07:19:48.960Z,16.76
2018-09-02T07:20:49.004Z,16.76
2018-09-02T07:21:48.990Z,16.88
2018-09-02T07:22:49.002Z,16.93
2018-09-02T07:23:49.021Z,16.93
2018-09-02T07:24:49.033Z,16.79
2018-09-02T07:25:49.049Z,16.73
2018-09-02T07:26:49.069Z,16.81
2018-09-02T07:27:49.075Z,16.88
2018-09-02T07:28:49.098Z,16.88
2018-09-02T07:29:49.109Z,16.98
2018-09-02T07:30:49.120Z,16.96
2018-09-02T07:31:49.138Z,17.03
2018-09-02T07:32:49.152Z,17.07
2018-09-02T07:33:49.163Z,17.08
2018-09-02T07:34:49.179Z,17.18
2018-09-02T07:35:49.191Z,17.23
2018-09-02T07:36:49.216Z,17.22
2018-09-02T07:37:49.254Z,17.28
2018-09-02T07:38:49.234Z,17.30
2018-09-02T07:39:49.248Z,17.40
2018-09-02T07:40:49.318Z,17.41
2018-09-02T07:41:49.941Z,17.44
2018-09-02T07:42:49.298Z,17.44
2018-09-02T07:43:49.339Z,17.54
2018-09-02T07:44:49.332Z,17.62
2018-09-02T07:45:49.335Z,17.59
2018-09-02T07:46:49.353Z,17.64
2018-09-02T07:47:49.366Z,17.70
2018-09-02T07:48:49.386Z,17.72
2018-09-02T07:49:49.402Z,17.75
2018-09-02T07:50:49.748Z,17.78
2018-09-02T07:51:49.423Z,17.82
2018-09-02T07:52:49.441Z,17.77
2018-09-02T07:53:49.460Z,17.90
2018-09-02T07:54:49.468Z,17.97
2018-09-02T07:55:49.483Z,17.93
2018-09-02T07:56:49.504Z,18.00
2018-09-02T07:57:49.511Z,18.07
2018-09-02T07:58:49.528Z,18.18
2018-09-02T07:59:49.545Z,18.08
2018-09-02T08:00:49.558Z,18.17
2018-09-02T08:01:49.579Z,18.23
2018-09-02T08:02:49.725Z,18.21
2018-09-02T08:03:49.603Z,18.27
2018-09-02T08:04:49.615Z,18.30
2018-09-02T08:05:49.633Z,18.29
2018-09-02T08:06:49.645Z,18.35
2018-09-02T08:07:49.661Z,18.29
2018-09-02T08:08:49.681Z,18.32
2018-09-02T08:09:49.690Z,18.30
2018-09-02T08:10:49.701Z,18.32
2018-09-02T08:11:49.716Z,18.48
2018-09-02T08:12:49.874Z,18.33
2018-09-02T08:13:49.784Z,18.47
2018-09-02T08:14:49.830Z,18.50
2018-09-02T08:15:49.777Z,18.44
2018-09-02T08:16:49.798Z,18.52
2018-09-02T08:17:49.807Z,18.47
2018-09-02T08:18:49.830Z,18.52
2018-09-02T08:19:49.844Z,18.55
2018-09-02T08:20:49.856Z,18.70
2018-09-02T08:21:49.876Z,18.70
2018-09-02T08:22:49.947Z,18.69
2018-09-02T08:23:49.908Z,18.67
2018-09-02T08:24:49.919Z,18.70
2018-09-02T08:25:49.924Z,18.82
2018-09-02T08:26:49.939Z,18.87
2018-09-02T08:27:49.958Z,18.92
2018-09-02T08:28:49.968Z,18.88
2018-09-02T08:29:50.002Z,18.92
2018-09-02T08:30:49.997Z,19.04
2018-09-02T08:31:50.012Z,19.11
2018-09-02T08:32:50.034Z,19.22
2018-09-02T08:33:50.046Z,19.13
2018-09-02T08:34:50.068Z,19.23
2018-09-02T08:35:50.071Z,19.18
2018-09-02T08:36:50.089Z,19.21
2018-09-02T08:37:50.103Z,19.22
2018-09-02T08:38:50.166Z,19.26
2018-09-02T08:39:50.129Z,19.41
2018-09-02T08:40:50.146Z,19.40
2018-09-02T08:41:50.160Z,19.43
2018-09-02T08:42:50.173Z,19.31
2018-09-02T08:43:50.189Z,19.31
2018-09-02T08:44:50.224Z,19.41
2018-09-02T08:45:50.227Z,19.48
2018-09-02T08:46:50.250Z,19.50
2018-09-02T08:47:50.353Z,19.63
2018-09-02T08:48:50.306Z,19.73
2018-09-02T08:49:50.277Z,19.73
2018-09-02T08:50:50.292Z,19.84
2018-09-02T08:51:50.375Z,19.74
2018-09-02T08:52:50.385Z,19.81
2018-09-02T08:53:50.385Z,19.78
2018-09-02T08:54:50.356Z,19.77
2018-09-02T08:55:50.378Z,19.80
2018-09-02T08:56:50.417Z,19.88
2018-09-02T08:57:50.551Z,19.98
2018-09-02T08:58:50.414Z,19.98
2018-09-02T08:59:50.428Z,20.01
2018-09-02T09:00:50.447Z,20.02
2018-09-02T09:01:50.549Z,19.94
2018-09-02T09:02:50.490Z,19.99
2018-09-02T09:03:50.489Z,19.92
2018-09-02T09:04:50.510Z,19.96
2018-09-02T09:05:50.522Z,19.95
2018-09-02T09:06:50.530Z,19.95
2018-09-02T09:07:50.696Z,20.01
2018-09-02T09:08:50.801Z,20.11
2018-09-02T09:09:50.582Z,20.11
2018-09-02T09:10:50.602Z,20.13
2018-09-02T09:11:50.607Z,20.28
2018-09-02T09:12:50.631Z,20.28
2018-09-02T09:13:50.641Z,20.32
2018-09-02T09:14:50.665Z,20.47
2018-09-02T09:15:50.674Z,20.41
2018-09-02T09:16:50.855Z,20.41
2018-09-02T09:17:50.717Z,20.41
2018-09-02T09:18:50.734Z,20.51
2018-09-02T09:19:50.786Z,20.51
2018-09-02T09:20:50.798Z,20.52
2018-09-02T09:21:50.757Z,20.58
2018-09-02T09:22:50.795Z,20.54
2018-09-02T09:23:50.871Z,20.62
2018-09-02T09:24:50.840Z,20.55
2018-09-02T09:25:50.831Z,20.77
2018-09-02T09:26:50.865Z,20.74
2018-09-02T09:27:51.017Z,20.85
2018-09-02T09:28:50.920Z,20.76
2018-09-02T09:29:50.880Z,20.84
2018-09-02T09:30:50.893Z,20.80
2018-09-02T09:31:50.911Z,20.85
2018-09-02T09:32:50.929Z,20.87
2018-09-02T09:33:50.938Z,20.87
2018-09-02T09:34:50.968Z,20.91
2018-09-02T09:35:50.970Z,20.97
2018-09-02T09:36:50.996Z,21.06
2018-09-02T09:37:51.002Z,21.12
2018-09-02T09:38:51.013Z,21.12
2018-09-02T09:39:51.027Z,21.16
2018-09-02T09:40:51.044Z,21.22
2018-09-02T09:41:51.059Z,21.28
2018-09-02T09:42:51.073Z,21.31
2018-09-02T09:43:51.089Z,21.34
2018-09-02T09:44:51.113Z,21.34
2018-09-02T09:45:51.207Z,21.35
2018-09-02T09:46:51.134Z,21.42
2018-09-02T09:47:51.162Z,21.50
2018-09-02T09:48:51.165Z,21.56
2018-09-02T09:49:51.273Z,21.65
2018-09-02T09:50:51.214Z,21.64
2018-09-02T09:51:51.284Z,21.65
2018-09-02T09:52:51.328Z,21.62
2018-09-02T09:53:51.253Z,21.56
2018-09-02T09:54:51.254Z,21.69
2018-09-02T09:55:51.312Z,21.68
2018-09-02T09:56:51.317Z,21.68
2018-09-02T09:57:51.357Z,21.68
2018-09-02T09:58:51.333Z,21.68
2018-09-02T09:59:51.364Z,21.74
2018-09-02T10:00:51.400Z,21.79
2018-09-02T10:01:51.382Z,21.86
2018-09-02T10:02:51.399Z,21.82
2018-09-02T10:03:51.417Z,21.86
2018-09-02T10:04:51.408Z,21.98
2018-09-02T10:05:51.421Z,21.96
2018-09-02T10:06:51.439Z,22.06
2018-09-02T10:07:51.460Z,22.09
2018-09-02T10:08:51.468Z,22.05
2018-09-02T10:09:51.521Z,22.07
2018-09-02T10:10:51.497Z,22.21
2018-09-02T10:11:51.574Z,22.24
2018-09-02T10:12:51.531Z,22.03
2018-09-02T10:13:51.547Z,22.17
2018-09-02T10:14:51.560Z,22.05
2018-09-02T10:15:51.651Z,22.07
2018-09-02T10:16:51.593Z,21.98
2018-09-02T10:17:51.608Z,22.05
2018-09-02T10:18:51.620Z,22.12
2018-09-02T10:19:51.661Z,22.15
2018-09-02T10:20:51.657Z,22.18
2018-09-02T10:21:51.670Z,22.22
2018-09-02T10:22:51.682Z,22.25
2018-09-02T10:23:51.758Z,22.30
2018-09-02T10:24:51.746Z,22.31
2018-09-02T10:25:51.753Z,22.42
2018-09-02T10:26:51.755Z,22.42
2018-09-02T10:27:51.762Z,22.57
2018-09-02T10:28:51.773Z,22.49
2018-09-02T10:29:51.789Z,22.57
2018-09-02T10:30:51.825Z,22.47
2018-09-02T10:31:51.833Z,22.54
2018-09-02T10:32:51.899Z,22.57
2018-09-02T10:33:51.853Z,22.60
2018-09-02T10:34:51.873Z,22.52
2018-09-02T10:35:51.932Z,22.51
2018-09-02T10:36:52.308Z,22.52
2018-09-02T10:37:52.273Z,22.37
2018-09-02T10:38:51.929Z,22.36
2018-09-02T10:39:51.946Z,22.42
2018-09-02T10:40:51.964Z,22.55
2018-09-02T10:41:51.973Z,22.51
2018-09-02T10:42:51.995Z,22.64
2018-09-02T10:43:52.025Z,22.68
2018-09-02T10:44:52.033Z,22.68
2018-09-02T10:45:52.045Z,22.76
2018-09-02T10:46:52.054Z,22.82
2018-09-02T10:47:52.068Z,22.76
2018-09-02T10:48:52.091Z,22.70
2018-09-02T10:49:52.106Z,22.58
2018-09-02T10:50:52.114Z,22.57
2018-09-02T10:51:52.141Z,22.33
2018-09-02T10:52:52.158Z,22.18
2018-09-02T10:53:52.177Z,22.06
2018-09-02T10:54:52.188Z,22.17
2018-09-02T10:55:52.214Z,22.24
2018-09-02T10:56:52.212Z,22.12
2018-09-02T10:57:52.227Z,22.30
2018-09-02T10:58:52.239Z,22.37
2018-09-02T10:59:52.265Z,22.37
2018-09-02T11:00:52.279Z,22.40
2018-09-02T11:01:52.287Z,22.51
2018-09-02T11:02:52.322Z,22.54
2018-09-02T11:03:52.340Z,22.42
2018-09-02T11:04:52.388Z,22.30
2018-09-02T11:05:52.359Z,22.33
2018-09-02T11:06:52.391Z,22.22
2018-09-02T11:07:52.683Z,22.20
2018-09-02T11:08:52.418Z,22.42
2018-09-02T11:09:52.408Z,22.40
2018-09-02T11:10:52.426Z,22.40
2018-09-02T11:11:52.455Z,22.37
2018-09-02T11:12:52.476Z,22.57
2018-09-02T11:13:52.689Z,22.39
2018-09-02T11:14:52.488Z,22.36
2018-09-02T11:15:52.497Z,22.20
2018-09-02T11:16:52.515Z,22.07
2018-09-02T11:17:52.534Z,22.14
2018-09-02T11:18:52.550Z,22.20
2018-09-02T11:19:52.565Z,22.25
2018-09-02T11:20:52.576Z,22.40
2018-09-02T11:21:52.610Z,22.33
2018-09-02T11:22:52.607Z,22.42
2018-09-02T11:23:52.626Z,22.46
2018-09-02T11:24:52.642Z,22.58
2018-09-02T11:25:52.659Z,22.76
2018-09-02T11:26:52.671Z,22.79
2018-09-02T11:27:52.707Z,22.88
2018-09-02T11:28:52.780Z,22.82
2018-09-02T11:29:52.742Z,22.79
2018-09-02T11:30:52.758Z,22.88
2018-09-02T11:31:52.805Z,22.91
2018-09-02T11:32:52.770Z,22.92
2018-09-02T11:33:52.882Z,22.95
2018-09-02T11:34:52.826Z,23.02
2018-09-02T11:35:52.857Z,23.09
2018-09-02T11:36:52.826Z,23.15
2018-09-02T11:37:52.849Z,23.22
2018-09-02T11:38:52.858Z,23.25
2018-09-02T11:39:52.867Z,23.28
2018-09-02T11:40:52.886Z,23.23
2018-09-02T11:41:52.904Z,23.17
2018-09-02T11:42:52.914Z,23.20
2018-09-02T11:43:52.944Z,23.00
2018-09-02T11:44:52.947Z,22.97
2018-09-02T11:45:52.963Z,22.86
2018-09-02T11:46:53.041Z,22.80
2018-09-02T11:47:53.001Z,22.85
2018-09-02T11:48:53.017Z,22.98
2018-09-02T11:49:53.036Z,23.09
2018-09-02T11:50:53.039Z,23.00
2018-09-02T11:51:53.074Z,23.10
2018-09-02T11:52:53.079Z,23.19
2018-09-02T11:53:53.091Z,23.31
2018-09-02T11:54:53.115Z,23.27
2018-09-02T11:55:53.127Z,23.27
2018-09-02T11:56:53.148Z,23.38
2018-09-02T11:57:53.195Z,23.39
2018-09-02T11:58:53.187Z,23.38
2018-09-02T11:59:53.239Z,23.42
2018-09-02T12:00:53.268Z,23.27
2018-09-02T12:01:53.218Z,23.25
2018-09-02T12:02:53.227Z,23.47
2018-09-02T12:03:53.260Z,23.54
2018-09-02T12:04:53.344Z,23.43
2018-09-02T12:05:53.293Z,23.47
2018-09-02T12:06:53.377Z,23.50
2018-09-02T12:07:53.352Z,23.48
2018-09-02T12:08:53.328Z,23.58
2018-09-02T12:09:53.357Z,23.54
2018-09-02T12:10:53.395Z,23.48
2018-09-02T12:11:53.386Z,23.54
2018-09-02T12:12:53.385Z,23.55
2018-09-02T12:13:53.423Z,23.55
2018-09-02T12:14:53.618Z,23.68
2018-09-02T12:15:53.429Z,23.61
2018-09-02T12:16:53.446Z,23.51
2018-09-02T12:17:53.479Z,23.55
2018-09-02T12:18:53.477Z,23.39
2018-09-02T12:19:53.491Z,23.28
2018-09-02T12:20:53.520Z,23.32
2018-09-02T12:21:53.526Z,23.51
2018-09-02T12:22:53.540Z,23.51
2018-09-02T12:23:53.561Z,23.43
2018-09-02T12:24:53.573Z,23.54
2018-09-02T12:25:53.589Z,23.61
2018-09-02T12:26:53.604Z,23.75
2018-09-02T12:27:53.626Z,23.85
2018-09-02T12:28:53.638Z,23.88
2018-09-02T12:29:53.649Z,23.72
2018-09-02T12:30:53.667Z,23.78
2018-09-02T12:31:53.711Z,23.80
2018-09-02T12:32:53.700Z,23.95
2018-09-02T12:33:53.810Z,24.09
2018-09-02T12:34:53.766Z,24.16
2018-09-02T12:35:53.841Z,24.27
2018-09-02T12:36:53.758Z,24.24
2018-09-02T12:37:53.770Z,24.27
2018-09-02T12:38:53.785Z,24.35
2018-09-02T12:39:53.807Z,24.15
2018-09-02T12:40:53.824Z,24.25
2018-09-02T12:41:53.893Z,24.24
2018-09-02T12:42:53.902Z,24.34
2018-09-02T12:43:53.865Z,24.45
2018-09-02T12:44:53.904Z,24.42
2018-09-02T12:45:53.896Z,24.45
2018-09-02T12:46:53.913Z,24.42
2018-09-02T12:47:54.003Z,24.34
2018-09-02T12:48:53.944Z,24.40
2018-09-02T12:49:53.960Z,24.35
2018-09-02T12:50:53.976Z,24.32
2018-09-02T12:51:53.991Z,24.39
2018-09-02T12:52:54.011Z,24.42
2018-09-02T12:53:54.029Z,24.55